Time;durP1;ratioP1;P1;durP2;ratioP2;P2;SDS_P1;SDS_P2;PMS_P1;PMS_P2;Temp;Humidity;BMP_temperature;BMP_pressure;BME280_temperature;BME280_humidity;BME280_pressure;Samples;Min_cycle;Max_cycle;Signal;HPM_P1;HPM_P2
2021/03/25 00:00:54;;;;;;;;;;;;;;;13.04;45.11;101423.22;4792246;29;19936;-74
2021/03/25 00:03:22;;;;;;;;;;;;;;;13.02;45.13;101423.25;4791090;29;19983;-74
2021/03/25 00:05:50;;;;;;;;;;;;;;;13.00;44.99;101421.56;4792321;29;19941;-74
2021/03/25 00:08:18;;;;;;;;;;;;;;;12.99;45.01;101425.13;4795427;29;20016;-74
2021/03/25 00:10:45;;;;;;;;;;;;;;;12.95;45.05;101421.69;4790079;29;19937;-73
2021/03/25 00:13:12;;;;;;;;;;;;;;;12.91;45.01;101423.56;4793882;29;20081;-73
2021/03/25 00:15:40;;;;;;;;;;;;;;;12.89;45.21;101422.72;4772881;29;20778;-73
2021/03/25 00:18:08;;;;;;;;;;;;;;;12.85;45.12;101414.88;4788536;29;19940;-73
2021/03/25 00:20:35;;;;;;;;;;;;;;;12.82;45.34;101422.91;4793163;29;20418;-72
2021/03/25 00:23:02;;;;;;;;;;;;;;;12.81;45.22;101421.19;4779501;29;19933;-72
2021/03/25 00:25:30;;;;;;;;;;;;;;;12.78;45.28;101425.66;4795065;29;20061;-73
2021/03/25 00:27:57;;;;;;;;;;;;;;;12.77;45.39;101417.72;4795959;29;19936;-73
2021/03/25 00:30:25;;;;;;;;;;;;;;;12.74;45.39;101420.47;4771810;29;20474;-73
2021/03/25 00:32:52;;;;;;;;;;;;;;;12.71;45.32;101420.53;4776720;29;19972;-73
2021/03/25 00:35:20;;;;;;;;;;;;;;;12.67;45.53;101418.88;4793128;29;19929;-73
2021/03/25 00:37:47;;;;;;;;;;;;;;;12.64;45.63;101416.31;4793944;29;19934;-73
2021/03/25 00:40:15;;;;;;;;;;;;;;;12.58;45.57;101418.19;4794586;29;19941;-73
2021/03/25 00:42:42;;;;;;;;;;;;;;;12.55;45.70;101420.91;4790708;29;19933;-73
2021/03/25 00:45:11;;;;;;;;;;;;;;;12.52;45.63;101422.78;4790336;29;19933;-73
2021/03/25 00:47:38;;;;;;;;;;;;;;;12.50;45.81;101424.59;4793547;29;19939;-73
2021/03/25 00:50:08;;;;;;;;;;;;;;;12.49;45.75;101426.41;4791240;29;19940;-73
2021/03/25 00:52:37;;;;;;;;;;;;;;;12.47;45.83;101424.69;4793808;29;19938;-73
2021/03/25 00:55:04;;;;;;;;;;;;;;;12.47;45.79;101419.38;4792669;29;19940;-73
2021/03/25 00:57:31;;;;;;;;;;;;;;;12.44;45.88;101415.03;4773425;29;19936;-73
2021/03/25 00:59:58;;;;;;;;;;;;;;;12.42;45.90;101417.72;4776087;29;19933;-73
2021/03/25 01:02:25;;;;;;;;;;;;;;;12.41;45.71;101415.06;4789823;29;19934;-72
2021/03/25 01:04:52;;;;;;;;;;;;;;;12.40;45.72;101422.19;4780183;29;19955;-73
2021/03/25 01:07:23;;;;;;;;;;;;;;;12.38;45.97;101407.19;4773512;29;19945;-73
2021/03/25 01:09:51;;;;;;;;;;;;;;;12.38;45.89;101413.38;4790002;29;20407;-73
2021/03/25 01:12:19;;;;;;;;;;;;;;;12.36;45.97;101415.19;4774646;29;20048;-73
2021/03/25 01:14:46;;;;;;;;;;;;;;;12.39;45.43;101417.78;4792565;29;20455;-73
2021/03/25 01:17:13;;;;;;;;;;;;;;;12.47;44.62;101416.72;4781992;29;19933;-73
2021/03/25 01:19:41;;;;;;;;;;;;;;;12.50;43.75;101416.63;4792384;29;19939;-73
2021/03/25 01:22:08;;;;;;;;;;;;;;;12.55;42.32;101414.75;4774052;29;20012;-73
2021/03/25 01:24:35;;;;;;;;;;;;;;;12.58;41.48;101426.16;4784869;29;19944;-73
2021/03/25 01:27:03;;;;;;;;;;;;;;;12.64;40.88;101409.19;4787811;29;19944;-73
2021/03/25 01:29:31;;;;;;;;;;;;;;;12.65;40.33;101410.94;4778881;29;19940;-73
2021/03/25 01:31:58;;;;;;;;;;;;;;;12.70;39.36;101405.50;4779006;29;19930;-73
2021/03/25 01:34:26;;;;;;;;;;;;;;;12.73;39.11;101408.09;4776939;29;20025;-73
2021/03/25 01:36:54;;;;;;;;;;;;;;;12.67;39.11;101411.75;4789560;29;20020;-72
2021/03/25 01:39:24;;;;;;;;;;;;;;;12.58;39.67;101410.25;4789116;29;19938;-73
2021/03/25 01:41:51;;;;;;;;;;;;;;;12.47;40.09;101401.66;4775164;29;19939;-73
2021/03/25 01:44:36;;;;;;;;;;;;;;;12.44;40.43;101399.09;4792297;29;19930;-72
2021/03/25 01:47:06;;;;;;;;;;;;;;;12.40;40.87;101403.59;4790445;29;20032;-73
2021/03/25 01:49:33;;;;;;;;;;;;;;;12.36;41.24;101404.59;4779506;29;19929;-72
2021/03/25 01:52:17;;;;;;;;;;;;;;;12.34;41.62;101400.22;4774214;29;19930;-73
2021/03/25 01:54:54;;;;;;;;;;;;;;;12.31;42.13;101402.97;4782427;29;19937;-72
2021/03/25 01:57:38;;;;;;;;;;;;;;;12.28;42.12;101404.78;4792391;29;19933;-73
2021/03/25 02:00:23;;;;;;;;;;;;;;;12.26;42.54;101397.75;4776242;29;19994;-73
2021/03/25 02:03:10;;;;;;;;;;;;;;;12.24;42.79;101400.44;4788194;29;20402;-73
2021/03/25 02:05:46;;;;;;;;;;;;;;;12.23;42.94;101400.50;4793091;29;19968;-73
2021/03/25 02:08:20;;;;;;;;;;;;;;;12.20;43.23;101401.44;4770177;30;19941;-73
2021/03/25 02:10:49;;;;;;;;;;;;;;;12.19;43.40;101401.47;4789701;29;19959;-73
2021/03/25 02:13:28;;;;;;;;;;;;;;;12.16;43.57;101402.44;4778958;30;20906;-73
2021/03/25 02:16:02;;;;;;;;;;;;;;;12.15;43.57;101397.13;4780095;29;20019;-73
2021/03/25 02:18:38;;;;;;;;;;;;;;;12.13;43.86;101391.88;4791605;29;20461;-72
2021/03/25 02:21:35;;;;;;;;;;;;;;;12.12;43.91;101390.13;4773132;29;20000;-73
2021/03/25 02:24:18;;;;;;;;;;;;;;;12.09;44.05;101395.50;4772454;30;19945;-73
2021/03/25 02:26:52;;;;;;;;;;;;;;;12.08;44.24;101396.41;4776676;29;19933;-74
2021/03/25 02:29:27;;;;;;;;;;;;;;;12.06;44.36;101391.13;4795246;29;19929;-73
2021/03/25 02:31:57;;;;;;;;;;;;;;;12.04;44.43;101395.63;4779376;30;19944;-72
2021/03/25 02:34:27;;;;;;;;;;;;;;;12.01;44.43;101387.72;4795018;29;19934;-72
2021/03/25 02:36:58;;;;;;;;;;;;;;;12.00;44.71;101390.41;4789231;29;20181;-73
2021/03/25 02:39:28;;;;;;;;;;;;;;;11.99;44.76;101380.72;4792839;29;19948;-73
2021/03/25 02:42:18;;;;;;;;;;;;;;;11.95;44.79;101375.50;4777467;29;19930;-73
2021/03/25 02:44:48;;;;;;;;;;;;;;;11.94;44.97;101384.31;4783174;30;19960;-72
2021/03/25 02:47:17;;;;;;;;;;;;;;;11.93;45.00;101377.25;4780332;29;19938;-74
2021/03/25 02:49:48;;;;;;;;;;;;;;;11.91;45.11;101379.09;4790620;29;19938;-73
2021/03/25 02:52:18;;;;;;;;;;;;;;;11.89;45.04;101374.72;4775802;29;19944;-73
2021/03/25 02:54:53;;;;;;;;;;;;;;;11.87;45.30;101376.53;4779945;29;19954;-73
2021/03/25 02:57:24;;;;;;;;;;;;;;;11.85;45.32;101378.34;4793335;29;19939;-73
2021/03/25 02:59:55;;;;;;;;;;;;;;;11.84;45.30;101387.22;4772612;29;19934;-73
2021/03/25 03:02:26;;;;;;;;;;;;;;;11.82;45.54;101387.25;4777144;29;19934;-73
2021/03/25 03:04:58;;;;;;;;;;;;;;;11.81;45.49;101382.00;4778431;29;19984;-73
2021/03/25 03:07:27;;;;;;;;;;;;;;;11.79;45.88;101389.94;4793189;29;19930;-73
2021/03/25 03:10:15;;;;;;;;;;;;;;;11.78;45.86;101391.75;4780641;30;19950;-73
2021/03/25 03:12:47;;;;;;;;;;;;;;;11.75;45.75;101399.78;4775642;29;19933;-73
2021/03/25 03:15:17;;;;;;;;;;;;;;;11.73;45.74;101398.91;4781558;29;19930;-73
2021/03/25 03:17:47;;;;;;;;;;;;;;;11.73;46.09;101400.72;4776979;29;20035;-73
2021/03/25 03:20:41;;;;;;;;;;;;;;;11.71;45.91;101398.06;4788700;29;19933;-73
2021/03/25 03:23:28;;;;;;;;;;;;;;;11.70;46.08;101408.72;4775660;29;19934;-73
2021/03/25 03:25:57;;;;;;;;;;;;;;;11.68;46.08;101406.09;4790643;29;19969;-73
2021/03/25 03:28:26;;;;;;;;;;;;;;;11.67;46.13;101407.00;4794089;29;19939;-73
2021/03/25 03:31:03;;;;;;;;;;;;;;;11.65;46.07;101400.88;4775558;29;19935;-73
2021/03/25 03:33:34;;;;;;;;;;;;;;;11.65;46.14;101398.22;4775799;29;19929;-72
2021/03/25 03:36:02;;;;;;;;;;;;;;;11.63;46.12;101407.97;4775441;29;19955;-73
2021/03/25 03:38:33;;;;;;;;;;;;;;;11.60;46.36;101406.25;4779466;29;19936;-73
2021/03/25 03:41:15;;;;;;;;;;;;;;;11.59;46.39;101411.59;4792002;29;19933;-73
2021/03/25 03:43:43;;;;;;;;;;;;;;;11.57;46.51;101414.28;4781385;30;19940;-73
2021/03/25 03:46:13;;;;;;;;;;;;;;;11.57;46.33;101424.00;4789026;29;19934;-73
2021/03/25 03:48:44;;;;;;;;;;;;;;;11.55;46.51;101418.72;4791657;29;19940;-73
2021/03/25 03:51:14;;;;;;;;;;;;;;;11.54;46.64;101414.31;4792633;29;19961;-73
2021/03/25 03:53:42;;;;;;;;;;;;;;;11.54;46.38;101421.41;4783760;29;20036;-73
2021/03/25 03:56:17;;;;;;;;;;;;;;;11.52;46.52;101418.81;4757999;30;19933;-73
2021/03/25 03:58:46;;;;;;;;;;;;;;;11.50;46.77;101420.59;4771419;30;19961;-73
2021/03/25 04:01:19;;;;;;;;;;;;;;;11.49;46.85;101415.34;4754086;30;19933;-73
2021/03/25 04:03:54;;;;;;;;;;;;;;;11.48;46.68;101416.22;4769412;30;19930;-74
2021/03/25 04:07:03;;;;;;;;;;;;;;;11.46;46.88;101422.47;4753257;30;19938;-73
2021/03/25 04:10:03;;;;;;;;;;;;;;;11.45;46.94;101412.75;4738752;30;19997;-73
2021/03/25 04:12:38;;;;;;;;;;;;;;;11.44;46.90;101426.03;4755939;30;20014;-73
2021/03/25 04:15:08;;;;;;;;;;;;;;;11.42;47.01;101420.75;4777002;30;19941;-73
2021/03/25 04:17:45;;;;;;;;;;;;;;;11.41;46.97;101423.44;4758320;30;19938;-73
2021/03/25 04:20:34;;;;;;;;;;;;;;;11.41;47.20;101423.44;4772212;30;19983;-73
2021/03/25 04:23:11;;;;;;;;;;;;;;;11.40;47.16;101416.38;4773687;30;19965;-73
2021/03/25 04:25:40;;;;;;;;;;;;;;;11.37;47.09;101417.34;4774210;30;20363;-73
2021/03/25 04:28:09;;;;;;;;;;;;;;;11.36;47.06;101423.53;4755626;30;19944;-73
2021/03/25 04:30:39;;;;;;;;;;;;;;;11.36;47.04;101414.69;4770426;30;19934;-73
2021/03/25 04:33:06;;;;;;;;;;;;;;;11.35;47.20;101418.28;4760660;30;19964;-73
2021/03/25 04:35:34;;;;;;;;;;;;;;;11.35;47.40;101431.53;4759976;30;19937;-73
2021/03/25 04:38:02;;;;;;;;;;;;;;;11.33;47.00;101425.38;4774330;30;19930;-73
2021/03/25 04:40:31;;;;;;;;;;;;;;;11.32;47.23;101424.50;4776189;30;20824;-73
2021/03/25 04:42:58;;;;;;;;;;;;;;;11.29;47.47;101420.16;4769010;30;19941;-73
2021/03/25 04:45:28;;;;;;;;;;;;;;;11.28;47.48;101421.03;4773335;30;19953;-72
2021/03/25 04:47:57;;;;;;;;;;;;;;;11.28;47.32;101422.81;4774868;30;19930;-73
2021/03/25 04:50:25;;;;;;;;;;;;;;;11.29;47.65;101421.91;4756230;30;19938;-73
2021/03/25 04:53:00;;;;;;;;;;;;;;;11.30;47.42;101415.72;4775441;30;19999;-73
2021/03/25 04:55:28;;;;;;;;;;;;;;;11.30;47.60;101413.06;4787416;29;19955;-73
2021/03/25 04:57:57;;;;;;;;;;;;;;;11.32;47.29;101420.97;4789629;29;20407;-73
2021/03/25 05:00:25;;;;;;;;;;;;;;;11.37;47.05;101430.59;4793275;29;19929;-73
2021/03/25 05:02:53;;;;;;;;;;;;;;;11.42;45.43;101428.69;4793074;29;19937;-74
2021/03/25 05:05:22;;;;;;;;;;;;;;;11.47;44.57;101428.63;4788852;29;19937;-73
2021/03/25 05:07:52;;;;;;;;;;;;;;;11.50;43.16;101428.53;4792922;29;20479;-73
2021/03/25 05:10:24;;;;;;;;;;;;;;;11.54;42.30;101430.22;4782415;29;19941;-73
2021/03/25 05:12:51;;;;;;;;;;;;;;;11.58;41.46;101428.38;4791031;29;19940;-73
2021/03/25 05:15:19;;;;;;;;;;;;;;;11.61;40.92;101423.91;4792918;29;20004;-73
2021/03/25 05:17:49;;;;;;;;;;;;;;;11.69;40.29;101425.50;4792862;29;19929;-73
2021/03/25 05:20:18;;;;;;;;;;;;;;;11.74;39.75;101426.28;4791925;29;19929;-73
2021/03/25 05:22:52;;;;;;;;;;;;;;;11.76;39.62;101419.19;4790904;29;19933;-73
2021/03/25 05:25:22;;;;;;;;;;;;;;;11.78;39.16;101422.69;4787085;29;19934;-73
2021/03/25 05:27:53;;;;;;;;;;;;;;;11.75;39.27;101423.63;4792250;29;20999;-73
2021/03/25 05:30:24;;;;;;;;;;;;;;;11.68;39.82;101437.03;4774334;29;19930;-73
2021/03/25 05:32:56;;;;;;;;;;;;;;;11.58;40.70;101433.69;4788448;29;19945;-73
2021/03/25 05:35:24;;;;;;;;;;;;;;;11.54;41.03;101432.88;4786399;29;19933;-73
2021/03/25 05:37:51;;;;;;;;;;;;;;;11.51;41.37;101432.09;4790230;29;20005;-73
2021/03/25 05:40:22;;;;;;;;;;;;;;;11.51;41.89;101437.38;4788961;29;20395;-73
2021/03/25 05:42:54;;;;;;;;;;;;;;;11.50;41.86;101438.28;4792979;29;20374;-73
2021/03/25 05:45:41;;;;;;;;;;;;;;;11.51;42.17;101438.25;4792280;29;19929;-73
2021/03/25 05:48:22;;;;;;;;;;;;;;;11.52;42.34;101445.31;4792635;29;20001;-73
2021/03/25 05:50:51;;;;;;;;;;;;;;;11.52;42.46;101450.59;4778748;29;19934;-73
2021/03/25 05:53:27;;;;;;;;;;;;;;;11.53;42.72;101455.00;4772005;29;19933;-73
2021/03/25 05:56:00;;;;;;;;;;;;;;;11.60;42.90;101446.00;4788671;29;19933;-73
2021/03/25 05:58:33;;;;;;;;;;;;;;;11.72;42.83;101452.81;4789600;29;19933;-73
2021/03/25 06:01:09;;;;;;;;;;;;;;;11.72;42.65;101447.53;4759656;29;20028;-73
2021/03/25 06:03:38;;;;;;;;;;;;;;;11.71;43.06;101453.72;4769217;29;19941;-73
2021/03/25 06:06:14;;;;;;;;;;;;;;;11.75;43.01;101463.38;4743903;29;20679;-74
2021/03/25 06:08:47;;;;;;;;;;;;;;;11.79;42.93;101457.13;4772389;29;19933;-74
2021/03/25 06:11:20;;;;;;;;;;;;;;;11.87;42.92;101462.25;4786146;29;19929;-74
2021/03/25 06:14:03;;;;;;;;;;;;;;;11.92;42.94;101457.72;4786723;29;19938;-74
2021/03/25 06:16:49;;;;;;;;;;;;;;;11.95;43.00;101462.09;4791464;29;19937;-74
2021/03/25 06:19:28;;;;;;;;;;;;;;;12.05;42.78;101466.28;4784350;29;20449;-73
2021/03/25 06:22:02;;;;;;;;;;;;;;;12.16;42.37;101467.84;4786234;29;19965;-72
2021/03/25 06:24:39;;;;;;;;;;;;;;;12.27;42.52;101466.69;4783509;29;19944;-73
2021/03/25 06:27:15;;;;;;;;;;;;;;;12.45;42.10;101473.34;4786396;29;19963;-76
2021/03/25 06:29:44;;;;;;;;;;;;;;;12.52;41.86;101479.38;4788143;29;19950;-75
2021/03/25 06:32:14;;;;;;;;;;;;;;;12.53;42.06;101483.78;4791961;29;19940;-77
2021/03/25 06:34:43;;;;;;;;;;;;;;;12.71;41.80;101487.78;4769143;29;19960;-72
2021/03/25 06:37:17;;;;;;;;;;;;;;;12.83;41.70;101486.63;4783777;29;19937;-75
2021/03/25 06:39:48;;;;;;;;;;;;;;;12.92;41.54;101496.09;4789061;29;19934;-77
2021/03/25 06:42:22;;;;;;;;;;;;;;;13.04;41.43;101493.16;4787973;29;19940;-75
2021/03/25 06:45:11;;;;;;;;;;;;;;;13.11;41.67;101494.72;4789201;29;19965;-75
2021/03/25 06:47:48;;;;;;;;;;;;;;;13.22;41.11;101490.91;4768136;29;19934;-75
2021/03/25 06:50:19;;;;;;;;;;;;;;;13.34;41.29;101500.34;4783278;29;19938;-74
2021/03/25 06:52:46;;;;;;;;;;;;;;;13.41;40.90;101501.97;4789816;29;20008;-75
2021/03/25 06:55:15;;;;;;;;;;;;;;;13.53;40.68;101503.44;4767012;30;19933;-74
2021/03/25 06:57:45;;;;;;;;;;;;;;;13.78;40.22;101506.25;4794515;29;19929;-76
2021/03/25 07:00:15;;;;;;;;;;;;;;;13.93;39.96;101500.50;4785019;29;19968;-75
2021/03/25 07:02:43;;;;;;;;;;;;;;;14.23;39.30;101503.13;4783264;29;20019;-77
2021/03/25 07:05:16;;;;;;;;;;;;;;;14.37;39.11;101505.38;4778561;29;20286;-74
2021/03/25 07:07:44;;;;;;;;;;;;;;;14.46;39.06;101514.88;4786054;29;19988;-76
2021/03/25 07:10:16;;;;;;;;;;;;;;;14.48;39.14;101517.47;4785036;29;19941;-73
2021/03/25 07:12:46;;;;;;;;;;;;;;;14.54;39.24;101510.16;4791187;29;19933;-73
2021/03/25 07:15:35;;;;;;;;;;;;;;;14.54;39.20;101514.63;4791364;29;19933;-75
2021/03/25 07:18:03;;;;;;;;;;;;;;;14.92;38.54;101510.75;4786917;29;20004;-75
2021/03/25 07:20:35;;;;;;;;;;;;;;;15.15;38.19;101518.88;4789329;29;20000;-73
2021/03/25 07:23:26;;;;;;;;;;;;;;;15.53;37.62;101508.66;4774697;29;19933;-74
2021/03/25 07:26:32;;;;;;;;;;;;;;;;;;;;;
2021/03/25 07:29:36;;;;;;;;;;;;;;;16.04;36.98;101496.16;4762778;29;19934;-75
2021/03/25 07:32:27;;;;;;;;;;;;;;;16.50;36.03;101497.00;4767948;29;19947;-75
2021/03/25 07:35:41;;;;;;;;;;;;;;;16.15;36.90;101509.06;4769929;29;20140;-76
2021/03/25 07:38:27;;;;;;;;;;;;;;;16.79;35.83;101502.09;4788617;29;19943;-75
2021/03/25 07:41:09;;;;;;;;;;;;;;;17.31;34.98;101502.56;4776974;29;20667;-75
2021/03/25 07:43:53;;;;;;;;;;;;;;;17.46;34.70;101502.84;4773809;30;20406;-74
2021/03/25 07:46:22;;;;;;;;;;;;;;;17.74;34.28;101508.69;4790745;29;19933;-75
2021/03/25 07:49:17;;;;;;;;;;;;;;;17.72;34.61;101510.53;4794217;29;19933;-75
2021/03/25 07:51:47;;;;;;;;;;;;;;;18.11;33.87;101515.97;4779972;29;19929;-75
2021/03/25 07:54:15;;;;;;;;;;;;;;;18.48;33.33;101523.13;4790679;29;20366;-75
2021/03/25 07:56:59;;;;;;;;;;;;;;;18.98;32.63;101523.44;4790373;29;19937;-75
2021/03/25 07:59:28;;;;;;;;;;;;;;;19.34;32.06;101523.31;4784991;29;20002;-74
2021/03/25 08:01:54;;;;;;;;;;;;;;;19.58;31.84;101523.88;4775334;30;20911;-75
2021/03/25 08:04:26;;;;;;;;;;;;;;;19.84;31.43;101524.31;4785696;30;19934;-75
2021/03/25 08:07:06;;;;;;;;;;;;;;;20.13;31.11;101531.72;4775335;30;19973;-75
2021/03/25 08:09:45;;;;;;;;;;;;;;;20.47;30.58;101530.69;4776703;30;19941;-75
2021/03/25 08:12:20;;;;;;;;;;;;;;;20.65;30.60;101531.47;4775466;30;20017;-75
2021/03/25 08:14:48;;;;;;;;;;;;;;;20.88;30.37;101524.78;4776361;30;20001;-75
2021/03/25 08:17:17;;;;;;;;;;;;;;;21.22;29.88;101535.34;4778431;30;19969;-74
2021/03/25 08:19:52;;;;;;;;;;;;;;;21.30;29.85;101538.47;4794529;29;20448;-74
2021/03/25 08:22:37;;;;;;;;;;;;;;;21.86;29.22;101533.25;4776988;30;20024;-74
2021/03/25 08:25:19;;;;;;;;;;;;;;;22.21;28.60;101545.47;4767700;29;20356;-75
2021/03/25 08:27:55;;;;;;;;;;;;;;;22.62;28.19;101541.09;4778545;29;19933;-75
2021/03/25 08:30:29;;;;;;;;;;;;;;;23.00;27.59;101546.59;4774535;30;19934;-74
2021/03/25 08:33:02;;;;;;;;;;;;;;;23.32;27.52;101549.00;4778275;30;19930;-75
2021/03/25 08:35:35;;;;;;;;;;;;;;;23.73;27.15;101546.19;4778757;30;19933;-75
2021/03/25 08:38:11;;;;;;;;;;;;;;;24.00;26.93;101552.38;4777223;30;20450;-75
2021/03/25 08:40:41;;;;;;;;;;;;;;;24.38;26.27;101552.41;4774617;29;19934;-75
2021/03/25 08:43:19;;;;;;;;;;;;;;;24.78;25.85;101549.47;4773615;30;19937;-75
2021/03/25 08:45:51;;;;;;;;;;;;;;;25.20;25.25;101555.28;4781070;30;19936;-75
2021/03/25 08:48:21;;;;;;;;;;;;;;;25.55;25.16;101554.44;4777196;30;19929;-75
2021/03/25 08:50:51;;;;;;;;;;;;;;;25.91;24.60;101557.06;4767069;29;19934;-75
2021/03/25 08:53:26;;;;;;;;;;;;;;;26.30;24.22;101558.44;4774480;30;19930;-75
2021/03/25 08:55:55;;;;;;;;;;;;;;;26.60;24.06;101558.75;4788188;29;19940;-75
2021/03/25 08:58:26;;;;;;;;;;;;;;;26.99;23.72;101551.03;4779485;30;20397;-75
2021/03/25 09:00:59;;;;;;;;;;;;;;;27.37;23.28;101548.72;4788607;29;19956;-75
2021/03/25 09:03:28;;;;;;;;;;;;;;;27.82;22.69;101546.56;4787810;29;19990;-75
2021/03/25 09:06:01;;;;;;;;;;;;;;;28.26;22.29;101550.91;4778615;30;20026;-75
2021/03/25 09:08:29;;;;;;;;;;;;;;;28.53;22.38;101554.88;4789045;29;19933;-75
2021/03/25 09:11:00;;;;;;;;;;;;;;;28.75;21.81;101551.91;4786982;29;20395;-75
2021/03/25 09:13:29;;;;;;;;;;;;;;;29.15;21.60;101545.47;4788827;29;19933;-76
2021/03/25 09:15:57;;;;;;;;;;;;;;;29.74;21.24;101552.69;4792116;29;20339;-76
2021/03/25 09:18:26;;;;;;;;;;;;;;;30.23;20.39;101550.66;4790544;29;19929;-76
2021/03/25 09:20:54;;;;;;;;;;;;;;;30.43;20.44;101558.69;4789252;29;20057;-75
2021/03/25 09:23:40;;;;;;;;;;;;;;;31.03;19.68;101560.03;4788674;29;19937;-76
2021/03/25 09:26:26;;;;;;;;;;;;;;;31.38;19.57;101550.09;4790353;29;19961;-75
2021/03/25 09:29:06;;;;;;;;;;;;;;;31.89;19.18;101550.25;4779159;30;19929;-75
2021/03/25 09:31:34;;;;;;;;;;;;;;;32.50;18.63;101547.44;4788589;29;19934;-76
2021/03/25 09:34:21;;;;;;;;;;;;;;;32.71;18.49;101563.38;4775573;29;19933;-75
2021/03/25 09:36:50;;;;;;;;;;;;;;;33.10;18.22;101549.91;4788172;29;20034;-73
2021/03/25 09:39:22;;;;;;;;;;;;;;;33.45;17.66;101549.75;4785361;29;19963;-75
2021/03/25 09:41:50;;;;;;;;;;;;;;;33.98;17.41;101552.03;4790533;29;19937;-75
2021/03/25 09:44:30;;;;;;;;;;;;;;;34.13;17.55;101558.47;4774226;30;19940;-75
2021/03/25 09:47:12;;;;;;;;;;;;;;;34.51;16.83;101558.66;4772454;30;19937;-76
2021/03/25 09:49:41;;;;;;;;;;;;;;;34.75;16.82;101570.50;4784218;29;19934;-73
2021/03/25 09:52:36;;;;;;;;;;;;;;;35.02;16.49;101568.28;4785325;29;19945;-74
2021/03/25 09:55:15;;;;;;;;;;;;;;;35.34;16.52;101560.81;4789214;29;20009;-73
2021/03/25 09:57:51;;;;;;;;;;;;;;;35.64;16.14;101556.19;4775684;29;20001;-73
2021/03/25 10:00:37;;;;;;;;;;;;;;;35.90;16.18;101555.75;4788541;29;19940;-73
2021/03/25 10:03:06;;;;;;;;;;;;;;;36.39;15.75;101558.94;4785594;29;20044;-74
2021/03/25 10:05:36;;;;;;;;;;;;;;;36.70;15.21;101560.56;4784669;29;19944;-74
2021/03/25 10:08:24;;;;;;;;;;;;;;;36.95;15.26;101561.03;4790859;29;19945;-74
2021/03/25 10:10:53;;;;;;;;;;;;;;;37.13;15.21;101556.94;4787800;29;19937;-73
2021/03/25 10:13:23;;;;;;;;;;;;;;;37.26;15.13;101557.06;4779560;29;19934;-74
2021/03/25 10:15:55;;;;;;;;;;;;;;;37.25;14.94;101568.28;4786891;29;19965;-74
2021/03/25 10:18:41;;;;;;;;;;;;;;;37.41;14.82;101565.28;4789385;29;20084;-74
2021/03/25 10:21:12;;;;;;;;;;;;;;;37.48;14.87;101557.91;4783169;29;19972;-74
2021/03/25 10:23:43;;;;;;;;;;;;;;;37.68;14.51;101566.31;4790828;29;19964;-73
2021/03/25 10:26:18;;;;;;;;;;;;;;;37.98;14.17;101560.56;4792154;29;19934;-74
2021/03/25 10:28:46;;;;;;;;;;;;;;;37.85;14.51;101555.81;4777384;29;20402;-73
2021/03/25 10:31:15;;;;;;;;;;;;;;;37.81;14.51;101564.69;4788024;29;19975;-73
2021/03/25 10:33:42;;;;;;;;;;;;;;;37.63;14.55;101570.75;4784598;29;19929;-76
2021/03/25 10:36:11;;;;;;;;;;;;;;;37.63;14.76;101563.31;4774841;29;20030;-73
2021/03/25 10:38:43;;;;;;;;;;;;;;;37.48;14.91;101570.84;4787808;29;19945;-73
2021/03/25 10:41:16;;;;;;;;;;;;;;;37.16;14.87;101565.69;4785458;29;19953;-73
2021/03/25 10:43:49;;;;;;;;;;;;;;;36.94;15.12;101570.34;4791302;29;19940;-73
2021/03/25 10:46:26;;;;;;;;;;;;;;;36.86;15.35;101570.50;4769601;29;20419;-74
2021/03/25 10:48:58;;;;;;;;;;;;;;;36.91;15.45;101565.25;4786243;29;19933;-73
2021/03/25 10:51:26;;;;;;;;;;;;;;;36.97;15.24;101571.88;4790300;29;19938;-74
2021/03/25 10:53:55;;;;;;;;;;;;;;;36.67;15.78;101572.81;4791165;29;19937;-75
2021/03/25 10:56:26;;;;;;;;;;;;;;;36.64;15.63;101572.34;4791885;29;20028;-73
2021/03/25 10:58:58;;;;;;;;;;;;;;;36.83;15.66;101568.16;4792810;29;20006;-73
2021/03/25 11:01:28;;;;;;;;;;;;;;;37.14;15.14;101569.69;4767329;29;19933;-73
2021/03/25 11:03:56;;;;;;;;;;;;;;;37.37;15.24;101564.81;4792868;29;20057;-74
2021/03/25 11:06:25;;;;;;;;;;;;;;;37.59;14.91;101569.41;4777819;29;19929;-74
2021/03/25 11:08:52;;;;;;;;;;;;;;;37.53;15.01;101568.31;4791608;29;19949;-74
2021/03/25 11:11:23;;;;;;;;;;;;;;;37.75;14.72;101560.81;4796762;29;20036;-74
2021/03/25 11:13:56;;;;;;;;;;;;;;;38.08;14.45;101554.66;4791998;29;19956;-73
2021/03/25 11:16:24;;;;;;;;;;;;;;;38.49;13.86;101567.56;4790236;29;19941;-74
2021/03/25 11:18:55;;;;;;;;;;;;;;;38.81;13.78;101564.25;4776237;29;19976;-74
2021/03/25 11:21:27;;;;;;;;;;;;;;;38.79;14.07;101570.00;4793222;29;19934;-74
2021/03/25 11:24:04;;;;;;;;;;;;;;;39.08;13.59;101572.59;4792739;29;19959;-73
2021/03/25 11:26:31;;;;;;;;;;;;;;;38.88;13.54;101562.34;4794438;29;19944;-74
2021/03/25 11:29:01;;;;;;;;;;;;;;;38.61;14.36;101567.81;4793969;29;19993;-75
2021/03/25 11:31:29;;;;;;;;;;;;;;;38.60;14.27;101565.25;4789471;29;19996;-75
2021/03/25 11:33:57;;;;;;;;;;;;;;;38.55;13.98;101562.25;4779441;29;19963;-76
2021/03/25 11:36:32;;;;;;;;;;;;;;;38.18;14.58;101566.16;4778536;29;19933;-74
2021/03/25 11:39:09;;;;;;;;;;;;;;;38.75;14.19;101567.88;4795850;29;19959;-74
2021/03/25 11:41:36;;;;;;;;;;;;;;;39.01;13.78;101569.81;4786249;29;19937;-74
2021/03/25 11:44:05;;;;;;;;;;;;;;;39.37;13.60;101562.19;4770765;29;19936;-74
2021/03/25 11:46:33;;;;;;;;;;;;;;;39.78;13.41;101563.81;4789932;29;19940;-75
2021/03/25 11:49:12;;;;;;;;;;;;;;;40.39;12.72;101562.53;4774255;29;19944;-75
2021/03/25 11:51:42;;;;;;;;;;;;;;;40.53;12.42;101554.16;4774669;29;20722;-75
2021/03/25 11:54:25;;;;;;;;;;;;;;;40.91;12.66;101553.25;4788847;29;19963;-75
2021/03/25 11:56:55;;;;;;;;;;;;;;;41.39;12.18;101563.75;4786082;29;20033;-75
2021/03/25 11:59:31;;;;;;;;;;;;;;;41.60;11.80;101556.09;4787522;29;19933;-75
2021/03/25 12:02:16;;;;;;;;;;;;;;;42.11;11.67;101559.56;4789110;29;19937;-76
2021/03/25 12:04:44;;;;;;;;;;;;;;;42.34;11.55;101552.44;4792979;29;19929;-75
2021/03/25 12:07:15;;;;;;;;;;;;;;;42.96;11.18;101555.78;4786993;29;19944;-75
2021/03/25 12:09:57;;;;;;;;;;;;;;;43.39;11.05;101562.09;4775038;29;19942;-75
2021/03/25 12:12:25;;;;;;;;;;;;;;;43.93;10.38;101558.31;4787498;29;19930;-75
2021/03/25 12:14:53;;;;;;;;;;;;;;;44.48;10.15;101548.53;4789605;29;20008;-75
2021/03/25 12:17:20;;;;;;;;;;;;;;;44.75;10.18;101547.94;4788503;29;20379;-75
2021/03/25 12:19:52;;;;;;;;;;;;;;;45.33;9.79;101551.38;4790021;29;20204;-76
2021/03/25 12:22:22;;;;;;;;;;;;;;;45.73;9.39;101555.88;4789974;29;19930;-75
2021/03/25 12:24:49;;;;;;;;;;;;;;;46.03;9.13;101556.53;4782158;29;20418;-75
2021/03/25 12:27:17;;;;;;;;;;;;;;;46.36;8.90;101549.97;4788527;29;19989;-75
2021/03/25 12:29:44;;;;;;;;;;;;;;;46.34;9.00;101548.53;4790869;29;20081;-76
2021/03/25 12:32:13;;;;;;;;;;;;;;;46.52;9.10;101550.94;4793763;29;20430;-76
2021/03/25 12:35:02;;;;;;;;;;;;;;;46.72;8.89;101544.72;4776658;30;20014;-76
2021/03/25 12:37:29;;;;;;;;;;;;;;;46.91;8.80;101552.69;4770499;29;20046;-76
2021/03/25 12:39:57;;;;;;;;;;;;;;;47.00;8.60;101541.84;4785210;29;19937;-75
2021/03/25 12:42:24;;;;;;;;;;;;;;;47.03;8.51;101544.09;4790634;29;20685;-76
2021/03/25 12:44:55;;;;;;;;;;;;;;;47.20;8.55;101542.03;4776836;29;20410;-76
2021/03/25 12:47:23;;;;;;;;;;;;;;;47.29;8.66;101541.50;4792848;29;20004;-76
2021/03/25 12:49:56;;;;;;;;;;;;;;;47.41;8.42;101536.50;4776865;30;19979;-75
2021/03/25 12:52:23;;;;;;;;;;;;;;;47.41;8.38;101536.50;4787345;29;19944;-76
2021/03/25 12:54:51;;;;;;;;;;;;;;;47.55;8.49;101532.13;4774609;29;19929;-76
2021/03/25 12:57:20;;;;;;;;;;;;;;;47.65;8.60;101536.97;4791093;29;19933;-76
2021/03/25 12:59:47;;;;;;;;;;;;;;;47.84;8.35;101544.91;4792744;29;20136;-75
2021/03/25 13:02:14;;;;;;;;;;;;;;;47.85;8.49;101532.59;4775799;29;19929;-76
2021/03/25 13:04:42;;;;;;;;;;;;;;;47.91;8.36;101534.25;4775723;29;19942;-76
2021/03/25 13:07:09;;;;;;;;;;;;;;;47.75;8.56;101533.34;4774587;29;20330;-76